Flight Track Log - Related Links

Times and Time Zones

All times are in EDT time to prevent confusion due to time zone crossing. See the SKW4804 flight status page for this flight to view local times or setup timezone preferences in your user account.

Time Position Orientation Groundspeed Altitude Reporting Facility
EDT Latitude Longitude Course Direction KTS MPH feet Rate Location/Type
Tue 09:36:27 PM 33.4333 -112.0000 273° West 140 161 2,000  Level Phoenix TRACON
Tue 09:37:33 PM 33.4333 -111.9167 90° East 211 243 5,000 2,667 Climbing Phoenix TRACON
Tue 09:38:33 PM 33.4333 -111.8500 90° East 254 292 7,600 1,714 Climbing Phoenix TRACON
Tue 09:39:00 PM 33.4345 -112.4114 273° West  Level FlightAware Approximate
Tue 09:39:18 PM 33.3783 -111.8378 169° South 266 306 8,000  Level Albuquerque Center
Tue 09:40:00 PM 33.4387 -112.5142 273° West  Level FlightAware Approximate
Tue 09:40:20 PM 33.3042 -111.8519 189° South 270 311 8,000  Level Albuquerque Center
Tue 09:41:00 PM 33.4428 -112.6169 273° West  Level FlightAware Approximate
Tue 09:41:21 PM 33.2392 -111.8983 211° Southwest 277 319 8,000  Level Albuquerque Center
Tue 09:42:22 PM 33.1922 -111.9744 234° Southwest 284 327 8,200 1,328 Climbing Albuquerque Center
Tue 09:43:23 PM 33.1717 -112.0625 254° West 277 319 10,700 2,195 Climbing Albuquerque Center
Tue 09:44:25 PM 33.2050 -112.1564 293° West 313 360 12,700 2,439 Climbing Albuquerque Center
Tue 09:45:26 PM 33.2447 -112.2611 294° West 340 391 15,700 3,000 Climbing Albuquerque Center
Tue 09:46:27 PM 33.2844 -112.3650 295° West 343 395 18,800 2,410 Climbing Albuquerque Center
Tue 09:47:28 PM 33.3228 -112.4697 294° West 344 396 20,600 1,426 Climbing Albuquerque Center
Tue 09:48:29 PM 33.3633 -112.5800 294° West 362 417 21,700 1,317 Climbing Albuquerque Center
Tue 09:49:31 PM 33.4181 -112.7253 294° West 393 452 23,300 1,512 Climbing Albuquerque Center
Tue 09:50:32 PM 33.4658 -112.8550 294° West 415 478 24,800 1,475 Climbing Albuquerque Center
Tue 09:51:33 PM 33.5136 -112.9881 293° West 430 495 26,300 1,328 Climbing Albuquerque Center
Tue 09:52:34 PM 33.5631 -113.1253 293° West 443 510 27,500 1,082 Climbing Albuquerque Center
Tue 09:53:35 PM 33.6139 -113.2669 293° West 458 527 28,500 1,033 Climbing Albuquerque Center
Tue 09:54:36 PM 33.6667 -113.4211 292° West 472 543 29,600 1,122 Climbing Albuquerque Center
Tue 09:55:38 PM 33.7194 -113.5703 293° West 482 555 30,800 1,171 Climbing Albuquerque Center
Tue 09:56:39 PM 33.7717 -113.7172 293° West 481 554 32,000 590 Climbing Albuquerque Center
Tue 09:57:40 PM 33.8228 -113.8658 293° West 481 554 32,000  Level Albuquerque Center
Tue 09:58:41 PM 33.8756 -114.0164 293° West 487 560 32,000  Level Albuquerque Center
Tue 09:59:42 PM 33.9281 -114.1667 293° West 487 560 32,000  Level Albuquerque Center
Tue 10:00:43 PM 33.9847 -114.3353 292° West 481 554 32,000  Level Albuquerque Center
Tue 10:01:44 PM 34.0364 -114.4836 293° West 482 555 32,000  Level Albuquerque Center
Tue 10:02:56 PM 34.0981 -114.6703 292° West 484 557 32,000  Level Los Angeles Center
Tue 10:03:58 PM 34.1083 -114.8286 275° West 477 549 32,000  Level Los Angeles Center
Tue 10:04:59 PM 34.1089 -114.9883 270° West 477 549 32,000  Level Los Angeles Center
Tue 10:06:01 PM 34.1111 -115.1475 271° West 477 549 32,000  Level Los Angeles Center
Tue 10:07:03 PM 34.1119 -115.3072 270° West 479 551 32,000  Level Los Angeles Center
Tue 10:08:05 PM 34.1131 -115.4658 271° West 475 547 32,000 -49 Level Los Angeles Center
Tue 10:09:06 PM 34.1142 -115.6547 270° West 472 543 31,900 -49 Descending Los Angeles Center
Tue 10:10:08 PM 34.1103 -115.7997 268° West 441 507 31,900  Level Los Angeles Center
Tue 10:11:10 PM 34.0883 -115.9400 259° West 430 495 31,900  Level Los Angeles Center
Tue 10:12:12 PM 34.0667 -116.0839 260° West 435 501 31,900 -146 Level Los Angeles Center
Tue 10:13:13 PM 34.0453 -116.2289 260° West 441 507 31,600 -1,122 Descending Los Angeles Center
Tue 10:14:15 PM 34.0225 -116.3775 260° West 450 518 29,600 -2,468 Descending Los Angeles Center
Tue 10:15:17 PM 34.0000 -116.5592 262° West 461 531 26,500 -2,878 Descending Los Angeles Center
Tue 10:16:18 PM 33.9883 -116.7094 265° West 455 524 23,700 -2,585 Descending Los Angeles Center
Tue 10:17:20 PM 33.9758 -116.8500 264° West 430 495 21,200 -2,505 Descending Los Angeles Center
Tue 10:18:01 PM 33.9667 -116.9500 264° West 389 448 19,400 -2,436 Descending Southern California TRACON
Tue 10:19:01 PM 33.9500 -117.0833 261° West 402 463 17,100 -1,500 Descending Southern California TRACON
Tue 10:20:01 PM 33.9500 -117.2167 270° West 402 463 16,400 -1,000 Descending Southern California TRACON
Tue 10:21:01 PM 33.9333 -117.3500 261° West 390 449 15,100 -1,650 Descending Southern California TRACON
Tue 10:22:01 PM 33.9667 -117.4667 289° West 377 434 13,100 -1,700 Descending Southern California TRACON
Tue 10:23:01 PM 34.0000 -117.5667 292° West 346 398 11,700 -1,250 Descending Southern California TRACON
Tue 10:24:01 PM 34.0000 -117.6833 270° West 289 333 10,600 -1,140 Descending Southern California TRACON
Tue 10:25:02 PM 34.0000 -117.7667 270° West 281 323 9,400 -1,240 Descending Southern California TRACON
Tue 10:26:02 PM 33.9833 -117.8667 259° West 292 336 8,100 -1,150 Descending Southern California TRACON
Tue 10:27:02 PM 33.9833 -117.9500 270° West 280 322 7,100 -1,000 Descending Southern California TRACON
Tue 10:28:02 PM 33.9667 -118.0500 259° West 271 312 6,100 -1,150 Descending Southern California TRACON
Tue 10:29:02 PM 33.9667 -118.1333 270° West 229 264 4,800 -1,286 Descending Southern California TRACON
Tue 10:29:40 PM 33.9622 -118.1642 260° West 229 264 4,000 -1,263 Descending Los Angeles Center

Login

Don't have an account? Register now (free) for customized features, flight alerts, and more!